Sheridan Park, Washington
Current Conditions -  °F | °C
As of 2:15 PM on Sunday 23 Nov 2014 (Local Time) from KPWT Reporting Station
Clear Clear  
Wind Chill: 54°   Ceiling: Unl
Heat Index: 54°   Visibility: 10mi
Dew Point: 39°   Wind: 13mph
Humidity: 58%   Direction: 220°SW
Pressure: 30.16"   Gusts: NA
Location:  47.6314°N, 122.638°W
Report Text: KPWT 232215Z AUTO 22011KT 10SM CLR 12/04 A3016 RMK AO1
Loading
Personal Weather Stations






























Interactive Weather Map New forecast layout! Learn more

10-Day Weather Forecast

Advertisements
Track Severe Weather on mobile